createdAt,value
2023-03-07T00:02:45.839Z,73.93
2023-03-07T00:05:51.916Z,73.94
2023-03-07T00:09:05.043Z,74.59
2023-03-07T00:12:12.229Z,74.72
2023-03-07T00:15:19.298Z,74.79
2023-03-07T00:18:25.281Z,75.27
2023-03-07T00:21:32.561Z,75.40
2023-03-07T00:24:41.351Z,75.03
2023-03-07T00:27:48.132Z,75.33
2023-03-07T00:30:54.018Z,75.29
2023-03-07T00:34:00.765Z,75.45
2023-03-07T00:37:09.763Z,75.11
2023-03-07T00:40:20.416Z,75.07
2023-03-07T00:43:26.384Z,75.00
2023-03-07T00:46:33.231Z,75.21
2023-03-07T00:49:39.293Z,75.21
2023-03-07T00:52:46.256Z,75.63
2023-03-07T00:56:05.794Z,75.96
2023-03-07T00:59:13.317Z,75.87
2023-03-07T01:02:25.238Z,76.00
2023-03-07T01:05:32.179Z,75.91
2023-03-07T01:08:39.218Z,76.04
2023-03-07T01:11:48.892Z,75.57
2023-03-07T01:14:55.125Z,75.57
2023-03-07T01:18:02.524Z,75.29
2023-03-07T01:21:17.458Z,75.26
2023-03-07T01:24:24.254Z,74.87
2023-03-07T01:27:33.767Z,74.93
2023-03-07T01:30:40.871Z,74.96
2023-03-07T01:33:47.252Z,74.46
2023-03-07T01:36:54.573Z,74.53
2023-03-07T01:40:00.602Z,74.66
2023-03-07T01:43:30.194Z,74.70
2023-03-07T01:46:50.249Z,74.88
2023-03-07T01:50:00.023Z,74.86
2023-03-07T01:53:06.584Z,74.48
2023-03-07T01:56:15.690Z,74.75
2023-03-07T01:59:34.921Z,74.66
2023-03-07T02:02:48.758Z,74.35
2023-03-07T02:06:05.585Z,74.30
2023-03-07T02:09:20.806Z,74.20
2023-03-07T02:12:27.646Z,73.80
2023-03-07T02:15:38.320Z,73.60
2023-03-07T02:18:50.660Z,73.72
2023-03-07T02:22:12.546Z,73.44
2023-03-07T02:25:33.608Z,73.22
2023-03-07T02:28:52.212Z,73.57
2023-03-07T02:32:00.576Z,73.96
2023-03-07T02:35:19.179Z,74.46
2023-03-07T02:38:29.186Z,74.10
2023-03-07T02:41:41.219Z,74.07
2023-03-07T02:45:04.535Z,73.46
2023-03-07T02:48:14.333Z,73.40
2023-03-07T02:51:20.356Z,73.20
2023-03-07T02:54:28.104Z,72.72
2023-03-07T02:57:37.435Z,72.67
2023-03-07T03:00:48.117Z,72.84
2023-03-07T03:03:54.285Z,72.53
2023-03-07T03:07:07.830Z,72.87
2023-03-07T03:10:15.302Z,72.82
2023-03-07T03:13:31.928Z,73.15
2023-03-07T03:16:40.547Z,72.94
2023-03-07T03:19:47.951Z,72.80
2023-03-07T03:22:55.810Z,72.24
2023-03-07T03:26:14.832Z,72.46
2023-03-07T03:29:21.352Z,72.19
2023-03-07T03:32:30.825Z,72.71
2023-03-07T03:35:36.821Z,72.63
2023-03-07T03:38:49.833Z,72.82
2023-03-07T03:42:09.979Z,72.78
2023-03-07T03:45:17.886Z,72.58
2023-03-07T03:48:26.986Z,72.65
2023-03-07T03:51:34.897Z,72.51
2023-03-07T03:54:40.984Z,72.98
2023-03-07T03:57:47.766Z,73.25
2023-03-07T04:00:56.647Z,73.37
2023-03-07T04:04:06.523Z,72.74
2023-03-07T04:07:12.791Z,72.47
2023-03-07T04:10:20.316Z,72.29
2023-03-07T04:13:26.265Z,72.67
2023-03-07T04:16:33.073Z,72.47
2023-03-07T04:19:42.262Z,72.14
2023-03-07T04:22:49.195Z,72.42
2023-03-07T04:25:59.907Z,72.18
2023-03-07T04:29:07.832Z,71.94
2023-03-07T04:32:19.265Z,72.28
2023-03-07T04:35:28.793Z,72.57
2023-03-07T04:38:35.004Z,72.69
2023-03-07T04:41:42.947Z,72.57
2023-03-07T04:44:55.436Z,72.45
2023-03-07T04:48:04.974Z,72.35
2023-03-07T04:51:14.920Z,72.27
2023-03-07T04:54:22.266Z,72.27
2023-03-07T04:57:30.062Z,72.18
2023-03-07T05:00:37.279Z,72.08
2023-03-07T05:03:43.609Z,72.40
2023-03-07T05:07:06.819Z,73.05
2023-03-07T05:10:15.138Z,72.96
2023-03-07T05:13:28.848Z,72.69
2023-03-07T05:16:40.698Z,72.60
2023-03-07T05:19:47.748Z,73.08
2023-03-07T05:23:02.023Z,72.88
2023-03-07T05:26:09.787Z,73.05
2023-03-07T05:29:17.585Z,72.90
2023-03-07T05:32:25.041Z,73.10
2023-03-07T05:35:31.558Z,73.07
2023-03-07T05:38:42.998Z,73.13
2023-03-07T05:41:49.075Z,72.98
2023-03-07T05:44:56.331Z,73.10
2023-03-07T05:48:02.947Z,73.38
2023-03-07T05:51:11.996Z,73.40
2023-03-07T05:54:21.545Z,73.47
2023-03-07T05:57:28.848Z,73.46
2023-03-07T06:00:35.126Z,72.97
2023-03-07T06:03:43.187Z,73.12
2023-03-07T06:06:49.818Z,72.65
2023-03-07T06:09:59.237Z,72.27
2023-03-07T06:13:05.332Z,72.25
2023-03-07T06:16:12.577Z,71.95
2023-03-07T06:19:23.060Z,71.86
2023-03-07T06:22:34.751Z,71.70
2023-03-07T06:25:44.534Z,71.04
2023-03-07T06:28:56.443Z,70.51
2023-03-07T06:32:05.031Z,70.22
2023-03-07T06:35:13.344Z,70.07
2023-03-07T06:38:21.404Z,68.76
2023-03-07T06:41:31.001Z,68.73
2023-03-07T06:44:42.916Z,67.17
2023-03-07T06:47:50.949Z,66.37
2023-03-07T06:50:56.898Z,65.22
2023-03-07T06:54:04.129Z,64.59
2023-03-07T06:57:12.792Z,64.48
2023-03-07T07:00:22.956Z,63.96
2023-03-07T07:03:29.530Z,63.56
2023-03-07T07:06:39.294Z,62.33
2023-03-07T07:09:45.449Z,63.16
2023-03-07T07:12:56.892Z,62.49
2023-03-07T07:16:09.011Z,61.99
2023-03-07T07:19:18.463Z,60.88
2023-03-07T07:22:26.426Z,61.18
2023-03-07T07:25:33.219Z,61.42
2023-03-07T07:28:41.845Z,61.92
2023-03-07T07:31:50.088Z,62.38
2023-03-07T07:34:58.110Z,63.17
2023-03-07T07:38:04.995Z,63.62
2023-03-07T07:41:10.897Z,64.32
2023-03-07T07:44:20.516Z,64.49
2023-03-07T07:47:36.177Z,64.49
2023-03-07T07:50:43.293Z,64.20
2023-03-07T07:53:49.389Z,64.83
2023-03-07T07:57:00.860Z,65.22
2023-03-07T08:00:13.049Z,64.52
2023-03-07T08:03:20.243Z,63.35
2023-03-07T08:06:31.107Z,64.22
2023-03-07T08:09:39.057Z,62.62
2023-03-07T08:12:45.690Z,63.92
2023-03-07T08:15:55.133Z,62.92
2023-03-07T08:19:02.119Z,62.69
2023-03-07T08:22:08.946Z,61.29
2023-03-07T08:25:25.203Z,62.06
2023-03-07T08:28:32.157Z,62.01
2023-03-07T08:31:40.630Z,61.82
2023-03-07T08:34:47.635Z,60.68
2023-03-07T08:37:59.835Z,61.32
2023-03-07T08:41:14.064Z,61.58
2023-03-07T08:44:20.040Z,61.93
2023-03-07T08:47:35.972Z,60.49
2023-03-07T08:50:43.095Z,59.82
2023-03-07T08:53:50.393Z,59.85
2023-03-07T08:57:02.911Z,58.72
2023-03-07T09:00:18.181Z,57.91
2023-03-07T09:03:26.712Z,58.58
2023-03-07T09:06:33.797Z,57.88
2023-03-07T09:09:45.909Z,57.78
2023-03-07T09:12:55.451Z,56.06
2023-03-07T09:16:01.482Z,54.52
2023-03-07T09:19:10.935Z,53.84
2023-03-07T09:22:16.829Z,54.33
2023-03-07T09:25:23.577Z,55.17
2023-03-07T09:28:32.619Z,54.39
2023-03-07T09:31:45.982Z,54.42
2023-03-07T09:34:55.759Z,54.00
2023-03-07T09:38:04.951Z,54.35
2023-03-07T09:41:39.370Z,53.99
2023-03-07T09:45:23.290Z,53.95
2023-03-07T09:49:15.595Z,50.73
2023-03-07T09:52:31.126Z,48.09
2023-03-07T09:55:37.489Z,44.19
2023-03-07T09:58:58.124Z,40.59
2023-03-07T10:02:18.599Z,39.75
2023-03-07T10:05:40.734Z,37.50
2023-03-07T10:08:49.367Z,38.88
2023-03-07T10:12:42.039Z,36.92
2023-03-07T10:15:53.693Z,38.66
2023-03-07T10:19:17.077Z,40.70
2023-03-07T10:22:43.062Z,40.09
2023-03-07T10:25:59.916Z,40.20
2023-03-07T10:29:19.753Z,38.53
2023-03-07T10:32:39.986Z,37.80
2023-03-07T10:35:55.169Z,39.72
2023-03-07T10:39:21.314Z,40.25
2023-03-07T10:42:46.360Z,39.73
2023-03-07T10:45:55.907Z,41.51
2023-03-07T10:49:17.182Z,40.76
2023-03-07T10:52:38.087Z,41.64
2023-03-07T10:55:47.019Z,42.80
2023-03-07T10:59:09.672Z,43.38
2023-03-07T11:02:40.554Z,43.08
2023-03-07T11:05:52.395Z,43.63
2023-03-07T11:08:59.745Z,43.63
2023-03-07T11:12:22.035Z,43.61
2023-03-07T11:15:30.760Z,44.11
2023-03-07T11:18:46.536Z,42.36
2023-03-07T11:21:58.503Z,42.71
2023-03-07T11:25:19.224Z,44.15
2023-03-07T11:28:33.695Z,44.73
2023-03-07T11:32:00.330Z,43.81
2023-03-07T11:35:18.809Z,43.46
2023-03-07T11:38:44.127Z,42.78
2023-03-07T11:41:58.879Z,43.48
2023-03-07T11:45:35.075Z,44.01
2023-03-07T11:49:08.732Z,44.98
2023-03-07T11:52:40.441Z,44.33
2023-03-07T11:56:16.465Z,44.87
2023-03-07T12:00:06.317Z,45.77
2023-03-07T12:04:07.189Z,45.93
2023-03-07T12:07:49.372Z,46.08
2023-03-07T12:11:19.616Z,45.73
2023-03-07T12:14:45.369Z,45.83
2023-03-07T12:18:15.684Z,45.95
2023-03-07T12:21:55.614Z,46.96
2023-03-07T12:25:29.145Z,47.48
2023-03-07T12:28:48.601Z,47.49
2023-03-07T12:32:03.760Z,47.29
2023-03-07T12:35:28.619Z,47.93
2023-03-07T12:38:50.055Z,48.59
2023-03-07T12:42:09.302Z,47.81
2023-03-07T12:45:20.870Z,48.96
2023-03-07T12:48:44.033Z,48.62
2023-03-07T12:51:58.610Z,48.79
2023-03-07T12:55:23.997Z,48.86
2023-03-07T12:58:46.159Z,48.64
2023-03-07T13:02:07.986Z,48.41
2023-03-07T13:05:24.297Z,48.75
2023-03-07T13:08:32.315Z,48.96
2023-03-07T13:11:39.131Z,48.89
2023-03-07T13:14:50.819Z,49.64
2023-03-07T13:18:03.041Z,50.08
2023-03-07T13:21:15.232Z,49.29
2023-03-07T13:24:38.041Z,49.43
2023-03-07T13:27:51.876Z,49.59
2023-03-07T13:31:43.122Z,49.36
2023-03-07T13:34:51.792Z,49.39
2023-03-07T13:38:02.301Z,49.28
2023-03-07T13:41:14.876Z,49.61
2023-03-07T13:44:41.137Z,49.10
2023-03-07T13:47:50.701Z,49.45
2023-03-07T13:51:12.666Z,49.43
2023-03-07T13:54:20.248Z,49.72
2023-03-07T13:57:38.125Z,49.72
2023-03-07T14:00:57.906Z,50.04
2023-03-07T14:04:24.256Z,50.06
2023-03-07T14:07:44.340Z,49.57
2023-03-07T14:10:51.084Z,49.64
2023-03-07T14:14:47.282Z,49.73
2023-03-07T14:18:22.876Z,49.41
2023-03-07T14:21:54.984Z,48.38
2023-03-07T14:25:40.989Z,48.94
2023-03-07T14:28:54.993Z,48.58
2023-03-07T14:32:03.709Z,48.41
2023-03-07T14:35:15.550Z,48.52
2023-03-07T14:38:28.670Z,48.87
2023-03-07T14:41:53.142Z,50.69
2023-03-07T14:45:21.740Z,50.21
2023-03-07T14:49:05.267Z,50.96
2023-03-07T14:52:30.452Z,51.20
2023-03-07T14:55:46.433Z,52.03
2023-03-07T14:58:58.796Z,51.55
2023-03-07T15:02:05.573Z,50.90
2023-03-07T15:05:19.871Z,50.60
2023-03-07T15:08:30.703Z,50.87
2023-03-07T15:11:45.590Z,51.49
2023-03-07T15:14:59.742Z,51.96
2023-03-07T15:18:17.591Z,52.64
2023-03-07T15:21:32.860Z,53.04
2023-03-07T15:24:46.330Z,53.56
2023-03-07T15:28:08.034Z,53.67
2023-03-07T15:31:15.503Z,53.74
2023-03-07T15:34:29.058Z,53.90
2023-03-07T15:37:37.788Z,53.83
2023-03-07T15:40:45.959Z,54.03
2023-03-07T15:44:09.080Z,53.71
2023-03-07T15:47:19.832Z,54.40
2023-03-07T15:50:30.199Z,54.08
2023-03-07T15:53:41.848Z,54.64
2023-03-07T15:56:48.109Z,54.76
2023-03-07T16:00:02.397Z,54.91
2023-03-07T16:03:28.708Z,55.08
2023-03-07T16:06:45.689Z,55.59
2023-03-07T16:09:52.004Z,56.07
2023-03-07T16:12:59.890Z,56.28
2023-03-07T16:16:24.018Z,56.25
2023-03-07T16:19:31.018Z,56.90
2023-03-07T16:22:36.948Z,56.72
2023-03-07T16:25:45.948Z,57.26
2023-03-07T16:28:52.739Z,57.82
2023-03-07T16:32:04.452Z,58.10
2023-03-07T16:35:19.496Z,57.99
2023-03-07T16:38:26.268Z,58.15
2023-03-07T16:41:32.280Z,58.48
2023-03-07T16:44:43.564Z,59.22
2023-03-07T16:47:56.211Z,59.09
2023-03-07T16:51:03.002Z,59.58
2023-03-07T16:54:13.250Z,59.66
2023-03-07T16:57:25.662Z,60.11
2023-03-07T17:00:33.530Z,60.59
2023-03-07T17:03:49.766Z,60.22
2023-03-07T17:07:04.335Z,60.68
2023-03-07T17:10:24.261Z,61.19
2023-03-07T17:13:30.328Z,61.39
2023-03-07T17:16:45.428Z,61.46
2023-03-07T17:19:55.146Z,61.84
2023-03-07T17:23:02.102Z,61.89
2023-03-07T17:26:09.882Z,62.04
2023-03-07T17:29:31.575Z,62.23
2023-03-07T17:32:37.711Z,62.36
2023-03-07T17:35:47.715Z,62.38
2023-03-07T17:38:53.827Z,62.27
2023-03-07T17:42:01.973Z,62.79
2023-03-07T17:45:09.695Z,62.60
2023-03-07T17:48:29.014Z,62.74
2023-03-07T17:51:37.660Z,62.76
2023-03-07T17:54:46.586Z,62.58
2023-03-07T17:57:55.288Z,62.92
2023-03-07T18:01:09.174Z,63.08
2023-03-07T18:04:15.222Z,63.30
2023-03-07T18:07:25.148Z,63.25
2023-03-07T18:10:31.464Z,63.54
2023-03-07T18:13:42.549Z,63.93
2023-03-07T18:16:56.317Z,64.09
2023-03-07T18:20:04.020Z,64.32
2023-03-07T18:23:12.665Z,64.24
2023-03-07T18:26:22.493Z,64.19
2023-03-07T18:29:30.963Z,64.17
2023-03-07T18:32:38.110Z,63.91
2023-03-07T18:35:44.362Z,63.94
2023-03-07T18:38:54.768Z,63.96
2023-03-07T18:42:00.700Z,64.31
2023-03-07T18:45:09.111Z,64.38
2023-03-07T18:48:16.566Z,64.76
2023-03-07T18:51:27.197Z,64.66
2023-03-07T18:54:35.787Z,65.15
2023-03-07T18:57:42.567Z,65.36
2023-03-07T19:00:48.917Z,65.70
2023-03-07T19:04:01.350Z,65.60
2023-03-07T19:07:08.963Z,66.05
2023-03-07T19:10:18.505Z,66.26
2023-03-07T19:13:24.651Z,66.24
2023-03-07T19:16:32.372Z,66.31
2023-03-07T19:19:38.995Z,66.34
2023-03-07T19:22:45.899Z,65.64
2023-03-07T19:25:54.662Z,66.12
2023-03-07T19:29:04.998Z,65.86
2023-03-07T19:32:11.232Z,65.45
2023-03-07T19:35:18.439Z,64.84
2023-03-07T19:38:24.628Z,64.34
2023-03-07T19:41:37.452Z,64.38
2023-03-07T19:44:43.933Z,63.98
2023-03-07T19:47:51.024Z,63.77
2023-03-07T19:50:57.830Z,63.56
2023-03-07T19:54:04.699Z,63.59
2023-03-07T19:57:15.218Z,63.38
2023-03-07T20:00:24.705Z,62.88
2023-03-07T20:03:30.826Z,63.11
2023-03-07T20:06:38.019Z,63.45
2023-03-07T20:09:44.225Z,63.15
2023-03-07T20:12:54.841Z,63.79
2023-03-07T20:16:01.072Z,64.15
2023-03-07T20:19:13.246Z,63.76
2023-03-07T20:22:20.868Z,63.24
2023-03-07T20:25:31.543Z,63.53
2023-03-07T20:28:41.453Z,63.58
2023-03-07T20:31:51.058Z,63.68
2023-03-07T20:34:59.696Z,63.74
2023-03-07T20:38:06.747Z,63.71
2023-03-07T20:41:17.894Z,64.24
2023-03-07T20:44:29.424Z,64.22
2023-03-07T20:51:10.321Z,64.29
2023-03-07T20:54:20.218Z,63.79
2023-03-07T20:57:27.380Z,63.19
2023-03-07T21:00:35.965Z,63.46
2023-03-07T21:03:42.874Z,63.80
2023-03-07T21:06:50.943Z,63.94
2023-03-07T21:09:57.645Z,64.26
2023-03-07T21:13:04.976Z,63.87
2023-03-07T21:16:18.224Z,64.73
2023-03-07T21:19:24.183Z,64.27
2023-03-07T21:22:31.239Z,64.25
2023-03-07T21:25:38.312Z,64.48
2023-03-07T21:28:45.385Z,64.46
2023-03-07T21:31:54.342Z,64.53
2023-03-07T21:35:01.177Z,64.72
2023-03-07T21:38:08.114Z,65.00
2023-03-07T21:41:16.234Z,64.81
2023-03-07T21:44:22.398Z,65.08
2023-03-07T21:47:34.075Z,64.66
2023-03-07T21:50:40.943Z,64.86
2023-03-07T21:53:47.757Z,65.06
2023-03-07T21:56:53.734Z,65.57
2023-03-07T22:00:00.398Z,65.46
2023-03-07T22:03:12.984Z,65.25
2023-03-07T22:06:19.770Z,65.06
2023-03-07T22:09:25.756Z,65.43
2023-03-07T22:12:33.129Z,65.25
2023-03-07T22:15:42.246Z,65.77
2023-03-07T22:18:56.044Z,66.29
2023-03-07T22:22:01.941Z,66.57
2023-03-07T22:25:10.178Z,66.05
2023-03-07T22:28:19.404Z,66.30
2023-03-07T22:31:27.216Z,66.48
2023-03-07T22:34:35.883Z,66.36
2023-03-07T22:37:42.618Z,66.46
2023-03-07T22:40:48.689Z,66.43
2023-03-07T22:43:56.807Z,66.51
2023-03-07T22:47:02.724Z,66.63
2023-03-07T22:50:14.295Z,67.20
2023-03-07T22:53:20.478Z,66.90
2023-03-07T22:56:30.411Z,67.17
2023-03-07T22:59:36.449Z,67.63
2023-03-07T23:02:43.199Z,67.12
2023-03-07T23:05:51.781Z,67.41
2023-03-07T23:08:59.937Z,67.82
2023-03-07T23:12:13.714Z,68.14
2023-03-07T23:15:21.334Z,68.43
2023-03-07T23:18:27.934Z,68.16
2023-03-07T23:21:37.995Z,68.55
2023-03-07T23:24:44.094Z,68.55
2023-03-07T23:27:50.928Z,68.84
2023-03-07T23:30:57.178Z,69.04
2023-03-07T23:34:07.314Z,68.94
2023-03-07T23:37:15.886Z,68.95
2023-03-07T23:40:24.442Z,69.54
2023-03-07T23:43:30.436Z,70.00
2023-03-07T23:46:37.720Z,69.93
2023-03-07T23:49:43.585Z,69.95
2023-03-07T23:52:53.198Z,70.09
2023-03-07T23:55:59.051Z,70.36
2023-03-07T23:59:05.814Z,70.55
